首页
METAR-TAF:

METAR-TAF

机场 :

Pensacola Regional Airport

彭萨科拉, 佛罗里达州, 美国

纬度: 30-28-41N, 经度: 087-11-13W, 海拔: 36米

当前天气观测

该预报发布于32分钟前的22:53 UTC
风速3节,风向北转东北
温度 27°C
湿度 79%
气压 1016 hPa
能見度: 16.1公里
散云层高于2100英尺
多云层高于7500英尺

METAR: KPNS 132253Z 02003KT 10SM SCT021 BKN075 27/23 A2999 RMK AO2 SLP157 T02720228

时间: 18:25 (23:25 UTC)

预报

该预报发布于1小时和23分钟前的22:02 UTC
预报有效从13日的 22点(UTC)到 14日的 18点(UTC)
风速3节,风向多变
能見度: 10公里
少量云层高于2900英尺
多云层高于3500英尺
多云层高于7000英尺
附近有阵雨
从 14日的 0000点(UTC)
风速5节,风向北转东北
能見度: 10公里
多云层高于5000英尺
从 14日的 0600点(UTC)
风速6节,风向东转东北
能見度: 10公里
散云层高于5000英尺
多云层高于10000英尺
附近有阵雨
从 14日的 1500点(UTC)
风速4节,风向北转东北
能見度: 10公里
阴天层高于5000英尺

TAF: KPNS 132202Z 1322/1418 VRB03KT P6SM VCSH FEW029 BKN035 BKN070 FM140000 02005KT P6SM BKN050 FM140600 06006KT P6SM VCSH SCT050 BKN100 FM141500 03004KT P6SM OVC050

超过4000个机场的气象观测和天气预报(METAR&TAF报告)。

可查询的气象台以黄色和红色小点在地图上表示。

将鼠标移到小点上方,可查看气象台名称。

然后点击查看天气观测和预报。

如需切换地图:点击带黑十字的绿色按钮放大地图;点击带横线的绿色按钮缩小地图;或者点击绿色箭头查看邻近地区的地图。


METAR-TAF: